Time;durP1;ratioP1;P1;durP2;ratioP2;P2;SDS_P1;SDS_P2;PMS_P1;PMS_P2;Temp;Humidity;BMP_temperature;BMP_pressure;BME280_temperature;BME280_humidity;BME280_pressure;Samples;Min_cycle;Max_cycle;Signal;HPM_P1;HPM_P2
2023/05/23 00:00:50;;;;;;;12.53;11.23;;;22.40;72.60;;;;;;4940120;28;20989;-72
2023/05/23 00:03:21;;;;;;;12.93;11.80;;;22.40;72.70;;;;;;4938717;28;20442;-73
2023/05/23 00:05:50;;;;;;;15.53;14.00;;;22.40;72.80;;;;;;4942831;28;20482;-72
2023/05/23 00:08:19;;;;;;;14.70;13.30;;;22.40;72.60;;;;;;4947153;28;20813;-73
2023/05/23 00:10:49;;;;;;;14.40;12.13;;;22.40;72.50;;;;;;4938155;28;20496;-72
2023/05/23 00:13:17;;;;;;;13.90;12.60;;;22.40;72.40;;;;;;4956271;28;20468;-71
2023/05/23 00:15:47;;;;;;;13.40;12.10;;;22.40;72.20;;;;;;4966133;28;20566;-70
2023/05/23 00:18:16;;;;;;;13.77;12.20;;;22.40;72.50;;;;;;4943846;28;20954;-72
2023/05/23 00:20:45;;;;;;;13.63;12.30;;;22.40;72.50;;;;;;4947053;28;20482;-71
2023/05/23 00:23:17;;;;;;;15.60;11.83;;;22.40;72.30;;;;;;4943731;28;20452;-72
2023/05/23 00:25:51;;;;;;;14.37;13.10;;;22.40;72.30;;;;;;4944310;28;20505;-71
2023/05/23 00:28:20;;;;;;;12.23;11.07;;;22.40;72.20;;;;;;4949514;28;20461;-72
2023/05/23 00:30:49;;;;;;;11.77;10.63;;;22.40;72.50;;;;;;4945308;28;20484;-72
2023/05/23 00:33:20;;;;;;;12.97;11.83;;;22.40;72.60;;;;;;4947562;28;20522;-72
2023/05/23 00:35:49;;;;;;;13.07;11.23;;;22.40;72.30;;;;;;4949623;28;20488;-72
2023/05/23 00:38:18;;;;;;;12.50;11.17;;;22.40;72.20;;;;;;4943785;28;20447;-72
2023/05/23 00:40:48;;;;;;;12.60;11.40;;;22.40;72.40;;;;;;4949488;28;20520;-72
2023/05/23 00:43:17;;;;;;;12.80;11.53;;;22.40;72.40;;;;;;4946520;28;20980;-72
2023/05/23 00:45:45;;;;;;;12.80;11.53;;;22.40;72.50;;;;;;4939651;28;20481;-72
2023/05/23 00:48:14;;;;;;;12.17;11.03;;;22.40;72.20;;;;;;4969672;28;20460;-72
2023/05/23 00:50:43;;;;;;;11.70;10.60;;;22.40;72.60;;;;;;4941222;28;20511;-71
2023/05/23 00:53:13;;;;;;;12.17;11.07;;;22.30;72.40;;;;;;4945258;28;20987;-72
2023/05/23 00:55:41;;;;;;;12.23;11.10;;;22.30;72.20;;;;;;4937889;28;20490;-72
2023/05/23 00:58:13;;;;;;;11.77;10.67;;;22.30;72.40;;;;;;4943994;28;20979;-70
2023/05/23 01:00:45;;;;;;;11.57;10.57;;;22.30;72.60;;;;;;4945930;28;20478;-72
2023/05/23 01:03:17;;;;;;;11.37;10.27;;;22.30;72.60;;;;;;4952149;28;20453;-72
2023/05/23 01:05:46;;;;;;;13.10;10.03;;;22.30;72.60;;;;;;4943385;28;20486;-72
2023/05/23 01:08:15;;;;;;;10.40;9.50;;;22.30;72.60;;;;;;4945894;28;21044;-73
2023/05/23 01:10:43;;;;;;;11.20;10.20;;;22.30;72.70;;;;;;4949227;28;21048;-72
2023/05/23 01:13:22;;;;;;;11.00;10.00;;;22.30;72.60;;;;;;4947705;28;20519;-72
2023/05/23 01:15:55;;;;;;;11.50;10.30;;;22.30;72.70;;;;;;4942322;28;20568;-72
2023/05/23 01:18:29;;;;;;;10.10;9.13;;;22.30;72.60;;;;;;4944976;28;20963;-73
2023/05/23 01:21:03;;;;;;;10.37;9.37;;;22.30;72.60;;;;;;4944777;28;21155;-72
2023/05/23 01:24:11;;;;;;;12.23;11.07;;;22.30;72.70;;;;;;4944234;28;20451;-71
2023/05/23 01:26:54;;;;;;;11.10;10.20;;;22.30;72.50;;;;;;4957662;28;20961;-72
2023/05/23 01:29:28;;;;;;;11.10;10.10;;;22.30;72.50;;;;;;4951716;28;20485;-73
2023/05/23 01:31:58;;;;;;;10.50;9.53;;;22.30;72.60;;;;;;4954064;28;20485;-72
2023/05/23 01:34:26;;;;;;;10.80;9.83;;;22.30;72.50;;;;;;4944266;28;21023;-70
2023/05/23 01:36:55;;;;;;;11.43;10.33;;;22.30;72.50;;;;;;4964114;28;20463;-73
2023/05/23 01:39:24;;;;;;;10.87;9.87;;;22.30;72.30;;;;;;4959172;28;21005;-73
2023/05/23 01:41:54;;;;;;;11.93;9.30;;;22.20;72.10;;;;;;4955102;28;20527;-72
2023/05/23 01:44:24;;;;;;;12.00;10.90;;;22.30;72.20;;;;;;4943192;28;20474;-72
2023/05/23 01:46:52;;;;;;;12.90;11.47;;;22.20;72.20;;;;;;4953422;28;20456;-72
2023/05/23 01:49:22;;;;;;;13.17;11.93;;;22.30;72.00;;;;;;4948124;28;20542;-73
2023/05/23 01:51:53;;;;;;;11.60;10.50;;;22.20;73.00;;;;;;4962240;28;20953;-71
2023/05/23 01:54:22;;;;;;;12.07;11.00;;;22.20;72.00;;;;;;4944917;28;20496;-72
2023/05/23 01:56:51;;;;;;;11.47;10.37;;;22.20;72.10;;;;;;4950150;28;20457;-72
2023/05/23 01:59:19;;;;;;;12.33;10.97;;;22.20;72.10;;;;;;4938994;28;20563;-71
2023/05/23 02:01:53;;;;;;;11.07;9.90;;;22.20;72.20;;;;;;4948660;28;20450;-72
2023/05/23 02:04:22;;;;;;;11.40;10.40;;;22.20;72.20;;;;;;4939217;28;20464;-72
2023/05/23 02:06:50;;;;;;;11.03;9.93;;;22.20;72.10;;;;;;4953867;28;20983;-73
2023/05/23 02:09:19;;;;;;;11.50;10.50;;;22.20;72.10;;;;;;4954329;28;20747;-72
2023/05/23 02:11:47;;;;;;;10.80;9.80;;;22.10;71.80;;;;;;4956543;28;20924;-73
2023/05/23 02:14:17;;;;;;;10.10;9.20;;;22.20;72.10;;;;;;4947412;28;20476;-72
2023/05/23 02:16:45;;;;;;;11.00;9.90;;;22.20;72.10;;;;;;4955061;28;20995;-72
2023/05/23 02:19:16;;;;;;;11.77;10.57;;;22.20;72.10;;;;;;4946201;28;20810;-72
2023/05/23 02:21:50;;;;;;;11.37;10.10;;;22.20;72.00;;;;;;4950519;28;20445;-73
2023/05/23 02:24:18;;;;;;;10.47;9.53;;;22.20;72.20;;;;;;4944734;28;20544;-73
2023/05/23 02:26:47;;;;;;;11.87;10.73;;;22.20;72.10;;;;;;4952175;28;20589;-73
2023/05/23 02:29:17;;;;;;;10.73;9.67;;;22.20;72.10;;;;;;4950008;28;20444;-73
2023/05/23 02:31:46;;;;;;;10.37;9.17;;;22.20;71.90;;;;;;4952753;28;21016;-72
2023/05/23 02:34:16;;;;;;;10.80;9.70;;;22.20;72.00;;;;;;4951262;28;20568;-73
2023/05/23 02:36:45;;;;;;;10.73;9.73;;;22.20;72.10;;;;;;4967918;28;20953;-73
2023/05/23 02:39:13;;;;;;;11.03;9.90;;;22.20;72.10;;;;;;4952178;28;20476;-73
2023/05/23 02:41:43;;;;;;;10.50;9.20;;;22.20;72.10;;;;;;4948397;28;20440;-72
2023/05/23 02:44:11;;;;;;;10.10;9.20;;;22.20;72.20;;;;;;4950238;28;20488;-73
2023/05/23 02:46:39;;;;;;;10.40;9.40;;;22.20;72.30;;;;;;4948773;29;20822;-72
2023/05/23 02:49:08;;;;;;;10.07;9.10;;;22.10;72.00;;;;;;4952245;28;20447;-71
2023/05/23 02:51:38;;;;;;;9.57;8.63;;;22.10;72.20;;;;;;4946735;28;20941;-72
2023/05/23 02:54:06;;;;;;;9.27;8.43;;;22.10;72.10;;;;;;4951310;28;20462;-72
2023/05/23 02:56:37;;;;;;;9.27;8.47;;;22.10;72.10;;;;;;4953035;28;20454;-72
2023/05/23 02:59:06;;;;;;;10.43;9.43;;;22.10;71.90;;;;;;4956394;28;21043;-72
2023/05/23 03:01:35;;;;;;;9.77;8.87;;;22.10;72.00;;;;;;4958702;28;20539;-72
2023/05/23 03:04:03;;;;;;;8.90;8.10;;;22.10;71.90;;;;;;4948703;28;21048;-72
2023/05/23 03:06:32;;;;;;;9.40;8.50;;;22.10;71.60;;;;;;4943867;28;20535;-72
2023/05/23 03:09:03;;;;;;;9.97;8.83;;;22.10;71.30;;;;;;4945999;28;20477;-72
2023/05/23 03:11:32;;;;;;;9.13;7.90;;;22.10;71.30;;;;;;4948316;28;20457;-72
2023/05/23 03:14:00;;;;;;;10.17;8.87;;;22.10;71.60;;;;;;4946596;28;20475;-72
2023/05/23 03:16:30;;;;;;;9.37;8.57;;;22.10;71.20;;;;;;4948652;28;20532;-72
2023/05/23 03:18:59;;;;;;;8.73;8.03;;;22.10;71.40;;;;;;4947956;28;20481;-73
2023/05/23 03:21:28;;;;;;;9.33;8.43;;;22.00;71.40;;;;;;4954430;28;20739;-73
2023/05/23 03:23:56;;;;;;;9.30;8.10;;;22.10;71.40;;;;;;4953417;28;20475;-73
2023/05/23 03:26:26;;;;;;;9.00;8.20;;;22.00;71.30;;;;;;4948179;28;20450;-72
2023/05/23 03:28:55;;;;;;;9.70;8.80;;;22.00;71.30;;;;;;4941196;28;20539;-72
2023/05/23 03:31:23;;;;;;;9.30;8.50;;;22.00;71.10;;;;;;4942217;28;20465;-73
2023/05/23 03:33:52;;;;;;;10.00;9.00;;;22.00;71.40;;;;;;4957002;28;20495;-72
2023/05/23 03:36:24;;;;;;;9.50;8.60;;;22.00;71.50;;;;;;4943826;28;20566;-72
2023/05/23 03:38:53;;;;;;;8.93;8.03;;;22.00;71.50;;;;;;4947905;28;21182;-73
2023/05/23 03:41:22;;;;;;;9.70;8.80;;;22.00;71.60;;;;;;4939151;28;20437;-72
2023/05/23 03:43:52;;;;;;;8.80;8.00;;;22.00;72.70;;;;;;4944473;28;20469;-72
2023/05/23 03:46:21;;;;;;;9.97;9.17;;;22.00;71.30;;;;;;4935326;28;20464;-72
2023/05/23 03:48:50;;;;;;;9.00;8.10;;;22.00;71.30;;;;;;4958261;28;20450;-72
2023/05/23 03:51:19;;;;;;;9.30;8.40;;;22.00;71.50;;;;;;4943607;28;20892;-72
2023/05/23 03:53:48;;;;;;;9.60;8.70;;;22.00;71.40;;;;;;4948183;28;20514;-73
2023/05/23 03:56:16;;;;;;;9.23;8.37;;;22.00;71.40;;;;;;4948646;28;20473;-72
2023/05/23 03:58:45;;;;;;;9.03;8.23;;;22.00;71.50;;;;;;4951608;28;20451;-67
2023/05/23 04:01:17;;;;;;;9.33;8.53;;;22.00;71.60;;;;;;4948444;28;20886;-72
2023/05/23 04:03:47;;;;;;;8.33;7.53;;;22.00;71.70;;;;;;4943159;28;20460;-72
2023/05/23 04:06:19;;;;;;;9.30;8.40;;;21.90;71.50;;;;;;4943559;28;20455;-72
2023/05/23 04:08:48;;;;;;;9.00;8.20;;;21.90;71.50;;;;;;4946515;28;20504;-73
2023/05/23 04:11:17;;;;;;;8.83;7.93;;;21.90;71.20;;;;;;4955566;28;20463;-71
2023/05/23 04:13:46;;;;;;;8.63;7.80;;;21.90;71.20;;;;;;4946508;28;20455;-72
2023/05/23 04:16:15;;;;;;;8.30;7.60;;;21.90;71.30;;;;;;4948812;28;20495;-72
2023/05/23 04:18:47;;;;;;;10.17;9.17;;;21.90;71.40;;;;;;4947785;28;20551;-72
2023/05/23 04:21:16;;;;;;;8.77;7.97;;;21.90;71.50;;;;;;4941610;28;20451;-71
2023/05/23 04:23:57;;;;;;;9.83;8.70;;;21.90;71.50;;;;;;4943694;28;20484;-72
2023/05/23 04:26:26;;;;;;;8.53;7.63;;;21.90;71.30;;;;;;4953932;28;20436;-72
2023/05/23 04:28:55;;;;;;;8.70;7.90;;;21.90;71.20;;;;;;4946071;28;20450;-70
2023/05/23 04:31:24;;;;;;;8.87;8.07;;;21.90;71.30;;;;;;4956233;28;20866;-71
2023/05/23 04:33:54;;;;;;;9.33;7.80;;;21.90;72.40;;;;;;4946734;28;20466;-72
2023/05/23 04:36:25;;;;;;;8.93;8.03;;;21.90;71.00;;;;;;4944835;28;20484;-72
2023/05/23 04:38:55;;;;;;;8.60;7.80;;;21.80;71.30;;;;;;4947764;28;20444;-72
2023/05/23 04:41:24;;;;;;;8.53;7.73;;;21.90;71.40;;;;;;4947442;28;20466;-72
2023/05/23 04:44:13;;;;;;;9.20;8.33;;;21.80;71.10;;;;;;4947625;28;20603;-72
2023/05/23 04:46:49;;;;;;;8.10;7.30;;;21.80;71.10;;;;;;4956168;28;20536;-71
2023/05/23 04:49:22;;;;;;;8.30;7.50;;;21.80;71.00;;;;;;4943169;28;20856;-71
2023/05/23 04:51:51;;;;;;;8.07;7.37;;;21.80;71.00;;;;;;4941383;28;20956;-71
2023/05/23 04:54:25;;;;;;;8.23;7.50;;;21.80;71.10;;;;;;4943820;28;20626;-72
2023/05/23 04:56:55;;;;;;;8.87;7.97;;;21.80;71.20;;;;;;4943330;28;20493;-72
2023/05/23 04:59:25;;;;;;;7.80;7.00;;;21.80;71.30;;;;;;4953311;28;20562;-72
2023/05/23 05:01:54;;;;;;;8.67;7.87;;;21.80;71.40;;;;;;4944101;28;20789;-72
2023/05/23 05:04:24;;;;;;;8.77;7.93;;;21.80;71.40;;;;;;4943151;28;20515;-73
2023/05/23 05:06:53;;;;;;;9.00;8.10;;;21.80;71.00;;;;;;4943709;28;20511;-71
2023/05/23 05:09:21;;;;;;;7.90;7.20;;;21.80;70.90;;;;;;4946479;28;20877;-73
2023/05/23 05:11:51;;;;;;;8.27;7.47;;;21.80;71.40;;;;;;4931725;29;20460;-71
2023/05/23 05:14:20;;;;;;;7.97;7.27;;;21.80;71.00;;;;;;4936885;28;20479;-73
2023/05/23 05:16:49;;;;;;;7.93;7.23;;;21.80;71.10;;;;;;4946702;28;20503;-71
2023/05/23 05:19:19;;;;;;;9.00;8.10;;;21.80;71.10;;;;;;4947496;28;20508;-72
2023/05/23 05:21:50;;;;;;;7.63;7.00;;;21.80;71.20;;;;;;4959629;28;20452;-72
2023/05/23 05:24:19;;;;;;;8.10;7.40;;;21.80;71.30;;;;;;4945588;28;20476;-72
2023/05/23 05:26:49;;;;;;;8.00;7.30;;;21.70;71.30;;;;;;4945621;28;20860;-72
2023/05/23 05:29:17;;;;;;;7.97;7.17;;;21.80;71.20;;;;;;4937315;28;20484;-72
2023/05/23 05:31:46;;;;;;;7.00;6.30;;;21.70;71.10;;;;;;4943530;28;20781;-72
2023/05/23 05:34:14;;;;;;;8.27;7.53;;;21.70;71.10;;;;;;4946525;28;20467;-71
2023/05/23 05:36:46;;;;;;;7.80;7.03;;;21.80;71.10;;;;;;4941243;28;20644;-72
2023/05/23 05:39:18;;;;;;;7.40;6.60;;;21.70;71.10;;;;;;4939283;28;20857;-73
2023/05/23 05:41:48;;;;;;;8.23;7.23;;;21.70;70.90;;;;;;4948462;28;20528;-72
2023/05/23 05:44:16;;;;;;;7.33;6.67;;;21.70;70.80;;;;;;4946521;28;20569;-73
2023/05/23 05:46:47;;;;;;;8.73;7.20;;;21.70;71.00;;;;;;4959410;28;20428;-73
2023/05/23 05:49:15;;;;;;;7.40;6.70;;;21.70;70.80;;;;;;4945345;28;20977;-70
2023/05/23 05:51:47;;;;;;;7.80;7.10;;;21.70;70.90;;;;;;4952028;28;20448;-72
2023/05/23 05:54:15;;;;;;;8.10;7.30;;;21.70;70.60;;;;;;4946688;28;20466;-72
2023/05/23 05:56:48;;;;;;;8.60;7.80;;;21.70;70.80;;;;;;4939825;28;20857;-71
2023/05/23 05:59:17;;;;;;;8.80;8.00;;;21.70;70.70;;;;;;4946140;28;20514;-73
2023/05/23 06:01:45;;;;;;;7.10;6.50;;;21.70;70.70;;;;;;4956189;28;20471;-70
2023/05/23 06:04:15;;;;;;;7.90;7.20;;;21.70;70.90;;;;;;4954260;28;20551;-71
2023/05/23 06:06:44;;;;;;;6.83;6.20;;;21.70;71.00;;;;;;4949286;28;20479;-72
2023/05/23 06:09:12;;;;;;;7.27;6.57;;;21.70;71.10;;;;;;4946255;28;20477;-72
2023/05/23 06:11:41;;;;;;;8.70;7.90;;;21.70;71.10;;;;;;4969043;28;20944;-70
2023/05/23 06:14:10;;;;;;;7.43;6.73;;;21.70;71.10;;;;;;4955387;28;21088;-72
2023/05/23 06:16:43;;;;;;;7.90;7.20;;;21.70;70.90;;;;;;4956560;28;20463;-72
2023/05/23 06:19:12;;;;;;;7.57;6.77;;;21.60;70.90;;;;;;4949899;28;20467;-72
2023/05/23 06:21:41;;;;;;;7.93;7.23;;;21.60;70.70;;;;;;4946969;28;20463;-72
2023/05/23 06:24:11;;;;;;;9.63;7.37;;;21.60;70.50;;;;;;4950823;28;21356;-72
2023/05/23 06:26:39;;;;;;;7.53;6.93;;;21.60;70.90;;;;;;4948171;28;20444;-73
2023/05/23 06:29:10;;;;;;;7.90;7.10;;;21.60;70.80;;;;;;4953258;28;20484;-72
2023/05/23 06:31:38;;;;;;;7.23;6.47;;;21.60;71.00;;;;;;4948536;28;20543;-72
2023/05/23 06:34:08;;;;;;;8.20;7.40;;;21.60;71.00;;;;;;4952385;28;20959;-72
2023/05/23 06:36:40;;;;;;;7.60;6.90;;;21.60;71.00;;;;;;4948703;28;20841;-71
2023/05/23 06:39:09;;;;;;;7.80;7.10;;;21.60;71.30;;;;;;4947512;28;20468;-72
2023/05/23 06:41:39;;;;;;;7.67;6.97;;;21.60;71.20;;;;;;4963518;28;20444;-72
2023/05/23 06:44:12;;;;;;;7.60;6.90;;;21.60;71.10;;;;;;4947404;28;20472;-72
2023/05/23 06:46:45;;;;;;;7.17;6.50;;;21.60;71.20;;;;;;4948778;28;20453;-72
2023/05/23 06:49:13;;;;;;;8.87;6.93;;;21.60;71.20;;;;;;4969893;28;20480;-73
2023/05/23 06:51:44;;;;;;;6.97;6.33;;;21.60;71.00;;;;;;4944437;28;20447;-72
2023/05/23 06:54:13;;;;;;;7.50;6.80;;;21.60;71.30;;;;;;4974848;28;21038;-72
2023/05/23 06:56:42;;;;;;;7.60;6.90;;;21.60;71.10;;;;;;4955878;28;20539;-72
2023/05/23 06:59:12;;;;;;;8.00;7.20;;;21.50;71.00;;;;;;4957892;28;20463;-72
2023/05/23 07:01:40;;;;;;;7.93;7.23;;;21.50;72.10;;;;;;4945272;29;21016;-72
2023/05/23 07:04:10;;;;;;;6.70;6.10;;;21.50;71.20;;;;;;4950711;28;20472;-72
2023/05/23 07:06:40;;;;;;;7.43;6.63;;;21.50;70.90;;;;;;4944620;29;20817;-72
2023/05/23 07:09:10;;;;;;;7.93;6.43;;;21.50;71.30;;;;;;4950352;28;20976;-72
2023/05/23 07:11:40;;;;;;;6.73;6.13;;;21.50;71.00;;;;;;4954482;28;20527;-71
2023/05/23 07:14:09;;;;;;;7.70;6.80;;;21.50;70.90;;;;;;4948248;28;20854;-72
2023/05/23 07:16:44;;;;;;;7.33;6.70;;;21.50;71.00;;;;;;4957071;28;20475;-72
2023/05/23 07:19:13;;;;;;;6.67;6.07;;;21.50;71.10;;;;;;4966185;28;20446;-73
2023/05/23 07:21:47;;;;;;;7.70;6.60;;;21.50;71.00;;;;;;4942642;28;20454;-72
2023/05/23 07:24:18;;;;;;;7.00;6.40;;;21.50;71.10;;;;;;4957818;28;20471;-71
2023/05/23 07:26:47;;;;;;;7.43;6.83;;;21.50;70.90;;;;;;4958168;28;20439;-72
2023/05/23 07:29:16;;;;;;;7.70;6.37;;;21.50;70.90;;;;;;4946233;28;20489;-71
2023/05/23 07:31:48;;;;;;;7.57;6.70;;;21.50;70.90;;;;;;4955168;28;20842;-72
2023/05/23 07:34:20;;;;;;;6.90;6.30;;;21.50;71.00;;;;;;4948091;28;20515;-72
2023/05/23 07:36:56;;;;;;;7.53;6.83;;;21.50;71.30;;;;;;4945396;28;20475;-72
2023/05/23 07:39:26;;;;;;;6.47;5.90;;;21.40;71.10;;;;;;4944645;28;20483;-73
2023/05/23 07:41:57;;;;;;;6.57;5.73;;;21.40;71.00;;;;;;4956845;28;20484;-71
2023/05/23 07:44:26;;;;;;;6.77;6.17;;;21.40;71.30;;;;;;4951313;28;20475;-71
2023/05/23 07:46:56;;;;;;;6.77;6.17;;;21.40;71.10;;;;;;4944529;28;20553;-71
2023/05/23 07:49:25;;;;;;;7.67;6.87;;;21.40;71.10;;;;;;4967321;28;20478;-73
2023/05/23 07:51:55;;;;;;;6.30;5.70;;;21.40;71.00;;;;;;4964753;28;20457;-71
2023/05/23 07:54:23;;;;;;;6.60;6.00;;;21.40;71.00;;;;;;4943986;28;20498;-72
2023/05/23 07:56:56;;;;;;;7.20;6.60;;;21.40;71.30;;;;;;4948009;28;20798;-74
2023/05/23 07:59:25;;;;;;;7.83;7.13;;;21.40;71.20;;;;;;4944355;28;20494;-73
2023/05/23 08:01:56;;;;;;;7.47;6.77;;;21.40;71.00;;;;;;4966146;28;20448;-72
2023/05/23 08:04:26;;;;;;;7.67;6.80;;;21.40;71.20;;;;;;4942273;28;20459;-71
2023/05/23 08:06:56;;;;;;;9.07;6.13;;;21.40;71.10;;;;;;4957551;28;20453;-72
2023/05/23 08:09:35;;;;;;;7.53;6.23;;;21.40;71.30;;;;;;4942881;28;20495;-72
2023/05/23 08:12:06;;;;;;;6.70;6.00;;;21.40;71.20;;;;;;4947807;28;20464;-72
2023/05/23 08:14:34;;;;;;;8.13;7.03;;;21.40;71.20;;;;;;4944392;28;21116;-72
2023/05/23 08:17:31;;;;;;;7.60;6.00;;;21.40;71.20;;;;;;4948960;28;20491;-72
2023/05/23 08:20:00;;;;;;;6.20;5.60;;;21.40;71.30;;;;;;4944807;28;20480;-72
2023/05/23 08:22:31;;;;;;;6.47;5.87;;;21.30;71.30;;;;;;4954546;28;20453;-71
2023/05/23 08:24:59;;;;;;;7.13;6.40;;;21.30;71.40;;;;;;4946696;28;20555;-71
2023/05/23 08:27:30;;;;;;;6.37;5.70;;;21.30;71.30;;;;;;4948319;28;20484;-72
2023/05/23 08:30:06;;;;;;;7.23;6.63;;;21.30;71.20;;;;;;4947443;28;20476;-71
2023/05/23 08:32:36;;;;;;;6.60;6.00;;;21.30;71.40;;;;;;4955278;28;20450;-72
2023/05/23 08:35:06;;;;;;;7.50;6.80;;;21.30;71.50;;;;;;4940747;28;20467;-72
2023/05/23 08:37:36;;;;;;;6.40;5.80;;;21.30;71.50;;;;;;4942122;28;20468;-72
2023/05/23 08:40:13;;;;;;;6.50;5.80;;;21.30;71.60;;;;;;4956217;28;20566;-72
2023/05/23 08:42:47;;;;;;;6.20;5.67;;;21.30;71.60;;;;;;4938931;28;20444;-72
2023/05/23 08:45:16;;;;;;;7.00;6.30;;;21.30;71.50;;;;;;4941472;28;20485;-72
2023/05/23 08:47:47;;;;;;;7.00;6.30;;;21.30;71.70;;;;;;4943655;28;20507;-72
2023/05/23 08:50:18;;;;;;;6.43;5.83;;;21.30;71.70;;;;;;4943389;28;20481;-71
2023/05/23 08:52:55;;;;;;;7.97;6.00;;;21.30;71.60;;;;;;4942595;28;20471;-72
2023/05/23 08:55:26;;;;;;;8.63;6.47;;;21.30;71.60;;;;;;4936874;28;20491;-73
2023/05/23 08:57:59;;;;;;;6.90;6.10;;;21.30;71.70;;;;;;4944694;28;20472;-72
2023/05/23 09:00:37;;;;;;;6.60;6.00;;;21.30;71.50;;;;;;4957791;28;20988;-72
2023/05/23 09:03:06;;;;;;;7.10;6.40;;;21.30;71.70;;;;;;4946467;28;20466;-73
2023/05/23 09:05:47;;;;;;;7.20;6.30;;;21.30;71.60;;;;;;4946857;28;20996;-72
2023/05/23 09:08:18;;;;;;;6.70;5.43;;;21.30;71.60;;;;;;4948265;28;20468;-72
2023/05/23 09:10:48;;;;;;;6.77;6.17;;;21.30;71.60;;;;;;4945525;28;20896;-73
2023/05/23 09:13:19;;;;;;;7.37;6.73;;;21.20;71.50;;;;;;4948983;28;20862;-70
2023/05/23 09:16:02;;;;;;;9.00;6.03;;;21.20;71.40;;;;;;4947298;28;20472;-72
2023/05/23 09:18:39;;;;;;;7.00;6.30;;;21.20;71.40;;;;;;4961740;28;20486;-72
2023/05/23 09:21:09;;;;;;;6.90;5.90;;;21.20;71.50;;;;;;4937192;28;20993;-72
2023/05/23 09:23:43;;;;;;;6.37;5.77;;;21.20;71.60;;;;;;4947164;28;20494;-71
2023/05/23 09:26:13;;;;;;;5.97;5.40;;;21.20;71.70;;;;;;4941015;29;20796;-72
2023/05/23 09:28:44;;;;;;;6.60;5.80;;;21.20;71.60;;;;;;4946830;28;20886;-72
2023/05/23 09:31:13;;;;;;;6.07;5.47;;;21.20;71.70;;;;;;4934413;28;20453;-72
2023/05/23 09:33:47;;;;;;;7.00;5.70;;;21.20;71.50;;;;;;4947289;28;20479;-71
2023/05/23 09:36:18;;;;;;;6.53;5.83;;;21.20;71.50;;;;;;4950893;28;20566;-72
2023/05/23 09:38:47;;;;;;;6.10;5.50;;;21.20;71.50;;;;;;4955408;28;20468;-72
2023/05/23 09:41:16;;;;;;;6.90;6.20;;;21.20;71.50;;;;;;4952272;28;20883;-72
2023/05/23 09:43:50;;;;;;;6.50;5.87;;;21.20;71.50;;;;;;4952070;29;20820;-72
2023/05/23 09:46:21;;;;;;;6.07;5.47;;;21.20;71.40;;;;;;4950416;28;20443;-73
2023/05/23 09:48:52;;;;;;;5.80;5.20;;;21.10;71.50;;;;;;4943292;28;20467;-73
2023/05/23 09:51:22;;;;;;;7.90;6.67;;;21.10;71.50;;;;;;4948989;28;20480;-72
2023/05/23 09:53:52;;;;;;;6.93;6.20;;;21.10;71.40;;;;;;4950082;28;20448;-72
2023/05/23 09:56:22;;;;;;;6.53;5.90;;;21.10;71.40;;;;;;4941746;29;20453;-72
2023/05/23 09:58:51;;;;;;;7.30;6.60;;;21.10;71.40;;;;;;4950761;28;20984;-73
2023/05/23 10:01:22;;;;;;;6.50;5.90;;;21.10;71.40;;;;;;4955547;28;20975;-73
2023/05/23 10:03:56;;;;;;;6.60;5.93;;;21.10;71.30;;;;;;4949831;28;20633;-71
2023/05/23 10:06:31;;;;;;;6.10;5.47;;;21.10;71.20;;;;;;4943624;29;20543;-71
2023/05/23 10:09:04;;;;;;;5.87;5.30;;;21.10;71.30;;;;;;4949945;28;20961;-72
2023/05/23 10:12:08;;;;;;;6.50;5.90;;;21.10;71.20;;;;;;4928094;29;20448;-71
2023/05/23 10:14:40;;;;;;;6.57;5.53;;;21.10;71.10;;;;;;4943486;28;20474;-71
2023/05/23 10:17:18;;;;;;;6.73;6.10;;;21.10;71.20;;;;;;4945777;28;20452;-72
2023/05/23 10:19:55;;;;;;;7.00;6.33;;;21.10;71.00;;;;;;4945662;28;21076;-71
2023/05/23 10:22:24;;;;;;;8.10;6.50;;;21.10;71.00;;;;;;4951532;28;20455;-73
2023/05/23 10:24:53;;;;;;;7.23;5.93;;;21.10;70.90;;;;;;4948962;28;21003;-72
2023/05/23 10:27:22;;;;;;;7.23;6.10;;;21.10;70.70;;;;;;4952822;28;20451;-71
2023/05/23 10:29:51;;;;;;;7.00;6.33;;;21.10;70.90;;;;;;4951934;28;20482;-72
2023/05/23 10:32:20;;;;;;;6.00;5.40;;;21.10;71.00;;;;;;4948858;28;20451;-72
2023/05/23 10:34:56;;;;;;;6.27;5.70;;;21.10;70.90;;;;;;4948175;28;20484;-72
2023/05/23 10:37:31;;;;;;;6.63;5.80;;;21.00;70.60;;;;;;4965438;28;20447;-72
2023/05/23 10:40:04;;;;;;;6.63;5.70;;;21.10;70.50;;;;;;4938304;29;20475;-72
2023/05/23 10:42:45;;;;;;;5.90;5.30;;;21.10;70.70;;;;;;4950561;28;20826;-71
2023/05/23 10:45:18;;;;;;;6.20;4.97;;;21.10;70.70;;;;;;4947276;28;21009;-72
2023/05/23 10:47:47;;;;;;;6.33;5.70;;;21.10;70.70;;;;;;4949905;28;20859;-72
2023/05/23 10:50:33;;;;;;;5.73;5.17;;;21.10;70.50;;;;;;4944927;28;20485;-72
2023/05/23 10:53:02;;;;;;;6.70;5.60;;;21.00;70.30;;;;;;4946657;28;20441;-72
2023/05/23 10:55:35;;;;;;;6.90;5.90;;;21.10;70.30;;;;;;4938584;28;20985;-72
2023/05/23 10:58:11;;;;;;;6.20;5.10;;;21.10;70.20;;;;;;4959739;28;20970;-72
2023/05/23 11:00:47;;;;;;;6.30;5.50;;;21.10;70.30;;;;;;4950921;28;20476;-72
2023/05/23 11:03:17;;;;;;;6.30;5.40;;;21.00;70.40;;;;;;4964928;28;20435;-71
2023/05/23 11:05:53;;;;;;;6.70;5.97;;;21.00;70.30;;;;;;4947657;28;21209;-72
2023/05/23 11:08:24;;;;;;;5.80;5.30;;;21.00;70.10;;;;;;4958697;28;20800;-67
2023/05/23 11:11:11;;;;;;;7.77;6.60;;;21.00;70.10;;;;;;4944380;28;20468;-67
2023/05/23 11:13:58;;;;;;;6.90;5.63;;;21.00;70.00;;;;;;4944885;28;20455;-66
2023/05/23 11:16:29;;;;;;;7.83;5.83;;;21.00;69.90;;;;;;4947491;28;20511;-67
2023/05/23 11:19:26;;;;;;;6.67;4.70;;;21.00;70.00;;;;;;4949014;28;20526;-68
2023/05/23 11:21:59;;;;;;;6.83;5.70;;;21.10;69.80;;;;;;4943471;28;20536;-67
2023/05/23 11:24:50;;;;;;;5.87;5.23;;;21.10;70.00;;;;;;4941658;28;20472;-67
2023/05/23 11:27:27;;;;;;;6.07;5.43;;;21.10;69.50;;;;;;4950711;28;20461;-66
2023/05/23 11:30:00;;;;;;;5.00;4.53;;;21.10;69.80;;;;;;4952726;28;20894;-67
2023/05/23 11:32:30;;;;;;;5.50;5.00;;;21.10;69.80;;;;;;4946658;28;20507;-66
2023/05/23 11:35:03;;;;;;;6.90;6.23;;;21.10;69.70;;;;;;4950272;28;20488;-67
2023/05/23 11:37:33;;;;;;;6.00;5.40;;;21.00;69.60;;;;;;4944224;28;20802;-67
2023/05/23 11:40:27;;;;;;;6.07;5.47;;;21.10;69.60;;;;;;4946237;28;20498;-67
2023/05/23 11:42:56;;;;;;;4.87;4.47;;;21.10;69.50;;;;;;4959452;28;20487;-65
2023/05/23 11:45:25;;;;;;;5.70;5.20;;;21.10;69.60;;;;;;4948008;28;20511;-66
2023/05/23 11:47:53;;;;;;;5.90;5.30;;;21.10;69.70;;;;;;4948963;28;20521;-68
2023/05/23 11:50:23;;;;;;;5.73;5.23;;;21.10;69.60;;;;;;4944781;28;20576;-67
2023/05/23 11:52:54;;;;;;;6.87;5.37;;;21.10;69.40;;;;;;4950729;28;20448;-66
2023/05/23 11:55:23;;;;;;;5.10;4.60;;;21.10;69.50;;;;;;4955432;28;20767;-67
2023/05/23 11:57:52;;;;;;;6.03;5.50;;;21.00;69.40;;;;;;4946956;28;20787;-68
2023/05/23 12:00:21;;;;;;;5.63;5.13;;;21.00;69.40;;;;;;4971151;28;20483;-66
2023/05/23 12:02:50;;;;;;;5.67;4.73;;;21.00;69.60;;;;;;4951598;28;20561;-67
2023/05/23 12:05:21;;;;;;;6.20;5.60;;;21.00;69.40;;;;;;4945067;28;20517;-67
2023/05/23 12:07:50;;;;;;;5.20;4.70;;;21.00;69.50;;;;;;4947810;28;20511;-67
2023/05/23 12:10:21;;;;;;;8.13;4.60;;;21.00;69.50;;;;;;4947708;28;20456;-68
2023/05/23 12:12:51;;;;;;;5.90;5.30;;;21.00;69.50;;;;;;4944133;28;20547;-67
2023/05/23 12:15:25;;;;;;;5.90;5.30;;;21.00;69.50;;;;;;4945658;28;20484;-68
2023/05/23 12:17:55;;;;;;;5.53;4.93;;;21.00;69.50;;;;;;4946819;28;20894;-67
2023/05/23 12:20:26;;;;;;;5.17;4.67;;;21.00;69.40;;;;;;4950322;28;20571;-67
2023/05/23 12:22:56;;;;;;;5.70;4.93;;;21.00;69.20;;;;;;4946582;28;20458;-67
2023/05/23 12:25:26;;;;;;;6.20;5.40;;;21.00;69.20;;;;;;4948074;28;20794;-67
2023/05/23 12:27:55;;;;;;;5.40;4.90;;;21.00;69.30;;;;;;4945721;28;20816;-67
2023/05/23 12:30:24;;;;;;;6.60;5.10;;;21.00;69.40;;;;;;4947809;28;21040;-66
2023/05/23 12:32:52;;;;;;;5.30;4.57;;;21.00;69.50;;;;;;4947524;28;20453;-69
2023/05/23 12:35:25;;;;;;;6.67;5.33;;;21.00;69.40;;;;;;4945062;28;21051;-65
2023/05/23 12:37:57;;;;;;;8.23;5.33;;;20.90;69.30;;;;;;4947461;28;20877;-67
2023/05/23 12:40:29;;;;;;;7.13;4.97;;;21.00;69.10;;;;;;4946050;28;20563;-67
2023/05/23 12:42:57;;;;;;;5.20;4.70;;;20.90;69.20;;;;;;4955356;28;20524;-68
2023/05/23 12:45:32;;;;;;;5.10;4.40;;;20.90;69.20;;;;;;4943787;28;20567;-67
2023/05/23 12:48:00;;;;;;;4.40;4.00;;;20.90;69.20;;;;;;4954493;28;20452;-67
2023/05/23 12:50:29;;;;;;;6.33;4.63;;;20.90;69.10;;;;;;4935379;28;20483;-67
2023/05/23 12:52:58;;;;;;;6.63;4.87;;;20.90;69.20;;;;;;4946897;28;20444;-66
2023/05/23 12:55:28;;;;;;;8.07;5.23;;;20.90;69.10;;;;;;4945983;28;20560;-66
2023/05/23 12:57:56;;;;;;;5.67;4.97;;;20.90;69.00;;;;;;4940917;28;20472;-66
2023/05/23 13:00:25;;;;;;;5.20;4.37;;;20.90;69.00;;;;;;4962539;28;20476;-66
2023/05/23 13:02:53;;;;;;;5.00;4.50;;;20.90;69.10;;;;;;4948473;28;20456;-68